sensor_id;sensor_type;location;lat;lon;timestamp;P1;durP1;ratioP1;P2;durP2;ratioP2
7515;SDS011;3799;47.184;8.538;2023-04-23T00:02:02;4.25;;;1.90;;
7515;SDS011;3799;47.184;8.538;2023-04-23T00:04:32;3.88;;;2.10;;
7515;SDS011;3799;47.184;8.538;2023-04-23T00:07:04;4.78;;;2.85;;
7515;SDS011;3799;47.184;8.538;2023-04-23T00:09:33;4.90;;;2.90;;
7515;SDS011;3799;47.184;8.538;2023-04-23T00:12:02;6.57;;;3.70;;
7515;SDS011;3799;47.184;8.538;2023-04-23T00:14:30;8.32;;;3.47;;
7515;SDS011;3799;47.184;8.538;2023-04-23T00:16:57;7.63;;;3.10;;
7515;SDS011;3799;47.184;8.538;2023-04-23T00:19:24;4.63;;;2.60;;
7515;SDS011;3799;47.184;8.538;2023-04-23T00:21:51;5.22;;;3.25;;
7515;SDS011;3799;47.184;8.538;2023-04-23T00:24:23;10.40;;;2.70;;
7515;SDS011;3799;47.184;8.538;2023-04-23T00:26:53;4.13;;;2.38;;
7515;SDS011;3799;47.184;8.538;2023-04-23T00:29:21;5.95;;;2.60;;
7515;SDS011;3799;47.184;8.538;2023-04-23T00:31:48;4.82;;;2.75;;
7515;SDS011;3799;47.184;8.538;2023-04-23T00:34:16;7.13;;;3.10;;
7515;SDS011;3799;47.184;8.538;2023-04-23T00:36:43;8.00;;;3.00;;
7515;SDS011;3799;47.184;8.538;2023-04-23T00:39:10;4.50;;;2.80;;
7515;SDS011;3799;47.184;8.538;2023-04-23T00:41:38;5.30;;;3.05;;
7515;SDS011;3799;47.184;8.538;2023-04-23T00:44:07;4.38;;;2.92;;
7515;SDS011;3799;47.184;8.538;2023-04-23T00:46:35;4.43;;;2.88;;
7515;SDS011;3799;47.184;8.538;2023-04-23T00:49:03;6.00;;;3.05;;
7515;SDS011;3799;47.184;8.538;2023-04-23T00:51:30;6.50;;;3.50;;
7515;SDS011;3799;47.184;8.538;2023-04-23T00:54:00;6.20;;;3.20;;
7515;SDS011;3799;47.184;8.538;2023-04-23T00:56:28;6.32;;;3.88;;
7515;SDS011;3799;47.184;8.538;2023-04-23T00:58:56;9.50;;;3.53;;
7515;SDS011;3799;47.184;8.538;2023-04-23T01:01:24;5.75;;;3.40;;
7515;SDS011;3799;47.184;8.538;2023-04-23T01:03:51;4.60;;;3.08;;
7515;SDS011;3799;47.184;8.538;2023-04-23T01:06:20;5.75;;;3.97;;
7515;SDS011;3799;47.184;8.538;2023-04-23T01:08:48;5.32;;;3.30;;
7515;SDS011;3799;47.184;8.538;2023-04-23T01:11:15;11.52;;;4.45;;
7515;SDS011;3799;47.184;8.538;2023-04-23T01:13:43;7.05;;;3.92;;
7515;SDS011;3799;47.184;8.538;2023-04-23T01:16:10;5.60;;;3.55;;
7515;SDS011;3799;47.184;8.538;2023-04-23T01:18:38;9.82;;;4.32;;
7515;SDS011;3799;47.184;8.538;2023-04-23T01:21:07;6.45;;;4.35;;
7515;SDS011;3799;47.184;8.538;2023-04-23T01:26:04;7.50;;;4.45;;
7515;SDS011;3799;47.184;8.538;2023-04-23T01:28:31;7.13;;;4.45;;
7515;SDS011;3799;47.184;8.538;2023-04-23T01:30:59;8.45;;;4.85;;
7515;SDS011;3799;47.184;8.538;2023-04-23T01:33:27;6.88;;;4.47;;
7515;SDS011;3799;47.184;8.538;2023-04-23T01:35:56;7.10;;;4.95;;
7515;SDS011;3799;47.184;8.538;2023-04-23T01:38:24;6.63;;;4.55;;
7515;SDS011;3799;47.184;8.538;2023-04-23T01:40:56;9.10;;;4.93;;
7515;SDS011;3799;47.184;8.538;2023-04-23T01:43:24;8.43;;;5.07;;
7515;SDS011;3799;47.184;8.538;2023-04-23T01:45:52;8.23;;;4.95;;
7515;SDS011;3799;47.184;8.538;2023-04-23T01:48:20;6.07;;;4.68;;
7515;SDS011;3799;47.184;8.538;2023-04-23T01:50:48;6.82;;;4.57;;
7515;SDS011;3799;47.184;8.538;2023-04-23T01:53:17;7.65;;;4.78;;
7515;SDS011;3799;47.184;8.538;2023-04-23T01:55:45;7.50;;;4.78;;
7515;SDS011;3799;47.184;8.538;2023-04-23T01:58:19;8.43;;;4.00;;
7515;SDS011;3799;47.184;8.538;2023-04-23T02:00:49;7.93;;;4.07;;
7515;SDS011;3799;47.184;8.538;2023-04-23T02:03:17;6.72;;;4.40;;
7515;SDS011;3799;47.184;8.538;2023-04-23T02:05:44;7.57;;;5.20;;
7515;SDS011;3799;47.184;8.538;2023-04-23T02:08:12;9.00;;;5.30;;
7515;SDS011;3799;47.184;8.538;2023-04-23T02:10:40;6.72;;;4.35;;
7515;SDS011;3799;47.184;8.538;2023-04-23T02:13:07;7.20;;;5.05;;
7515;SDS011;3799;47.184;8.538;2023-04-23T02:15:35;8.27;;;5.25;;
7515;SDS011;3799;47.184;8.538;2023-04-23T02:18:15;8.52;;;5.00;;
7515;SDS011;3799;47.184;8.538;2023-04-23T02:20:42;8.60;;;5.22;;
7515;SDS011;3799;47.184;8.538;2023-04-23T02:23:09;9.40;;;5.47;;
7515;SDS011;3799;47.184;8.538;2023-04-23T02:25:37;7.65;;;5.32;;
7515;SDS011;3799;47.184;8.538;2023-04-23T02:28:13;7.72;;;5.50;;
7515;SDS011;3799;47.184;8.538;2023-04-23T02:30:40;10.02;;;5.90;;
7515;SDS011;3799;47.184;8.538;2023-04-23T02:33:11;12.38;;;5.75;;
7515;SDS011;3799;47.184;8.538;2023-04-23T02:35:39;8.63;;;6.13;;
7515;SDS011;3799;47.184;8.538;2023-04-23T02:38:06;8.75;;;6.00;;
7515;SDS011;3799;47.184;8.538;2023-04-23T02:40:34;10.30;;;6.57;;
7515;SDS011;3799;47.184;8.538;2023-04-23T02:43:02;9.32;;;5.38;;
7515;SDS011;3799;47.184;8.538;2023-04-23T02:45:29;9.23;;;5.45;;
7515;SDS011;3799;47.184;8.538;2023-04-23T02:47:57;8.18;;;5.55;;
7515;SDS011;3799;47.184;8.538;2023-04-23T02:50:24;8.23;;;5.80;;
7515;SDS011;3799;47.184;8.538;2023-04-23T02:52:52;7.35;;;4.68;;
7515;SDS011;3799;47.184;8.538;2023-04-23T02:55:22;9.02;;;5.38;;
7515;SDS011;3799;47.184;8.538;2023-04-23T02:57:51;10.25;;;6.53;;
7515;SDS011;3799;47.184;8.538;2023-04-23T03:00:18;11.55;;;6.13;;
7515;SDS011;3799;47.184;8.538;2023-04-23T03:02:46;11.10;;;6.38;;
7515;SDS011;3799;47.184;8.538;2023-04-23T03:05:14;8.45;;;5.88;;
7515;SDS011;3799;47.184;8.538;2023-04-23T03:07:41;9.10;;;5.82;;
7515;SDS011;3799;47.184;8.538;2023-04-23T03:10:11;10.55;;;6.25;;
7515;SDS011;3799;47.184;8.538;2023-04-23T03:12:41;9.80;;;5.90;;
7515;SDS011;3799;47.184;8.538;2023-04-23T03:15:22;12.68;;;6.97;;
7515;SDS011;3799;47.184;8.538;2023-04-23T03:18:04;10.70;;;6.57;;
7515;SDS011;3799;47.184;8.538;2023-04-23T03:20:34;11.48;;;5.55;;
7515;SDS011;3799;47.184;8.538;2023-04-23T03:23:02;8.60;;;5.90;;
7515;SDS011;3799;47.184;8.538;2023-04-23T03:25:32;8.77;;;5.57;;
7515;SDS011;3799;47.184;8.538;2023-04-23T03:28:04;11.07;;;6.57;;
7515;SDS011;3799;47.184;8.538;2023-04-23T03:30:31;10.77;;;6.22;;
7515;SDS011;3799;47.184;8.538;2023-04-23T03:32:59;8.68;;;6.38;;
7515;SDS011;3799;47.184;8.538;2023-04-23T03:35:42;10.40;;;6.22;;
7515;SDS011;3799;47.184;8.538;2023-04-23T03:38:10;7.65;;;5.32;;
7515;SDS011;3799;47.184;8.538;2023-04-23T03:40:37;9.38;;;6.57;;
7515;SDS011;3799;47.184;8.538;2023-04-23T03:43:04;10.43;;;6.25;;
7515;SDS011;3799;47.184;8.538;2023-04-23T03:45:32;10.07;;;6.43;;
7515;SDS011;3799;47.184;8.538;2023-04-23T03:47:59;11.23;;;6.72;;
7515;SDS011;3799;47.184;8.538;2023-04-23T03:50:26;8.40;;;6.28;;
7515;SDS011;3799;47.184;8.538;2023-04-23T03:52:55;10.85;;;6.35;;
7515;SDS011;3799;47.184;8.538;2023-04-23T03:55:23;11.85;;;6.65;;
7515;SDS011;3799;47.184;8.538;2023-04-23T03:57:50;10.45;;;7.30;;
7515;SDS011;3799;47.184;8.538;2023-04-23T04:00:19;9.75;;;6.00;;
7515;SDS011;3799;47.184;8.538;2023-04-23T04:02:46;11.32;;;7.03;;
7515;SDS011;3799;47.184;8.538;2023-04-23T04:05:14;9.85;;;6.53;;
7515;SDS011;3799;47.184;8.538;2023-04-23T04:07:44;13.15;;;7.00;;
7515;SDS011;3799;47.184;8.538;2023-04-23T04:10:11;10.27;;;6.72;;
7515;SDS011;3799;47.184;8.538;2023-04-23T04:12:38;8.20;;;6.13;;
7515;SDS011;3799;47.184;8.538;2023-04-23T04:15:08;9.48;;;6.00;;
7515;SDS011;3799;47.184;8.538;2023-04-23T04:17:37;7.97;;;6.07;;
7515;SDS011;3799;47.184;8.538;2023-04-23T04:20:05;8.57;;;5.93;;
7515;SDS011;3799;47.184;8.538;2023-04-23T04:22:39;10.10;;;6.72;;
7515;SDS011;3799;47.184;8.538;2023-04-23T04:25:07;11.40;;;6.20;;
7515;SDS011;3799;47.184;8.538;2023-04-23T04:27:35;10.15;;;6.05;;
7515;SDS011;3799;47.184;8.538;2023-04-23T04:30:04;9.27;;;5.28;;
7515;SDS011;3799;47.184;8.538;2023-04-23T04:32:32;9.07;;;5.72;;
7515;SDS011;3799;47.184;8.538;2023-04-23T04:35:01;8.38;;;5.55;;
7515;SDS011;3799;47.184;8.538;2023-04-23T04:37:31;8.25;;;6.07;;
7515;SDS011;3799;47.184;8.538;2023-04-23T04:39:59;9.70;;;5.38;;
7515;SDS011;3799;47.184;8.538;2023-04-23T04:42:31;8.38;;;5.47;;
7515;SDS011;3799;47.184;8.538;2023-04-23T04:44:59;17.30;;;6.38;;
7515;SDS011;3799;47.184;8.538;2023-04-23T04:47:26;9.23;;;5.78;;
7515;SDS011;3799;47.184;8.538;2023-04-23T04:49:54;8.90;;;4.97;;
7515;SDS011;3799;47.184;8.538;2023-04-23T04:52:24;9.65;;;4.85;;
7515;SDS011;3799;47.184;8.538;2023-04-23T04:54:52;8.85;;;5.70;;
7515;SDS011;3799;47.184;8.538;2023-04-23T04:57:19;8.68;;;4.55;;
7515;SDS011;3799;47.184;8.538;2023-04-23T04:59:49;8.27;;;5.13;;
7515;SDS011;3799;47.184;8.538;2023-04-23T05:02:16;9.13;;;5.38;;
7515;SDS011;3799;47.184;8.538;2023-04-23T05:04:44;8.65;;;4.93;;
7515;SDS011;3799;47.184;8.538;2023-04-23T05:07:14;7.70;;;4.82;;
7515;SDS011;3799;47.184;8.538;2023-04-23T05:09:44;9.02;;;5.22;;
7515;SDS011;3799;47.184;8.538;2023-04-23T05:12:12;7.57;;;4.78;;
7515;SDS011;3799;47.184;8.538;2023-04-23T05:14:45;7.93;;;4.65;;
7515;SDS011;3799;47.184;8.538;2023-04-23T05:17:13;7.85;;;4.60;;
7515;SDS011;3799;47.184;8.538;2023-04-23T05:19:40;6.82;;;4.00;;
7515;SDS011;3799;47.184;8.538;2023-04-23T05:22:08;6.30;;;4.00;;
7515;SDS011;3799;47.184;8.538;2023-04-23T05:24:35;10.48;;;4.70;;
7515;SDS011;3799;47.184;8.538;2023-04-23T05:27:02;7.93;;;5.15;;
7515;SDS011;3799;47.184;8.538;2023-04-23T05:29:31;9.00;;;5.03;;
7515;SDS011;3799;47.184;8.538;2023-04-23T05:32:01;11.30;;;5.30;;
7515;SDS011;3799;47.184;8.538;2023-04-23T05:34:29;7.47;;;4.55;;
7515;SDS011;3799;47.184;8.538;2023-04-23T05:36:57;7.45;;;4.50;;
7515;SDS011;3799;47.184;8.538;2023-04-23T05:39:25;7.72;;;3.90;;
7515;SDS011;3799;47.184;8.538;2023-04-23T05:41:52;7.20;;;4.40;;
7515;SDS011;3799;47.184;8.538;2023-04-23T05:44:30;8.60;;;4.53;;
7515;SDS011;3799;47.184;8.538;2023-04-23T05:46:58;6.90;;;4.45;;
7515;SDS011;3799;47.184;8.538;2023-04-23T05:49:26;9.45;;;6.38;;
7515;SDS011;3799;47.184;8.538;2023-04-23T05:51:54;9.68;;;5.35;;
7515;SDS011;3799;47.184;8.538;2023-04-23T05:54:21;6.70;;;4.40;;
7515;SDS011;3799;47.184;8.538;2023-04-23T05:56:49;6.13;;;3.75;;
7515;SDS011;3799;47.184;8.538;2023-04-23T06:01:50;7.45;;;4.60;;
7515;SDS011;3799;47.184;8.538;2023-04-23T06:04:18;9.25;;;4.28;;
7515;SDS011;3799;47.184;8.538;2023-04-23T06:06:46;8.25;;;4.70;;
7515;SDS011;3799;47.184;8.538;2023-04-23T06:09:13;8.95;;;4.63;;
7515;SDS011;3799;47.184;8.538;2023-04-23T06:11:42;7.28;;;4.32;;
7515;SDS011;3799;47.184;8.538;2023-04-23T06:14:09;6.40;;;3.85;;
7515;SDS011;3799;47.184;8.538;2023-04-23T06:16:37;8.30;;;4.40;;
7515;SDS011;3799;47.184;8.538;2023-04-23T06:19:05;9.60;;;6.72;;
7515;SDS011;3799;47.184;8.538;2023-04-23T06:21:33;9.13;;;6.63;;
7515;SDS011;3799;47.184;8.538;2023-04-23T06:24:01;6.70;;;4.80;;
7515;SDS011;3799;47.184;8.538;2023-04-23T06:26:29;6.85;;;4.97;;
7515;SDS011;3799;47.184;8.538;2023-04-23T06:31:27;6.15;;;4.03;;
7515;SDS011;3799;47.184;8.538;2023-04-23T06:33:54;7.30;;;4.28;;
7515;SDS011;3799;47.184;8.538;2023-04-23T06:36:22;15.27;;;4.72;;
7515;SDS011;3799;47.184;8.538;2023-04-23T06:38:52;9.00;;;5.30;;
7515;SDS011;3799;47.184;8.538;2023-04-23T06:41:19;10.02;;;6.53;;
7515;SDS011;3799;47.184;8.538;2023-04-23T06:43:47;9.05;;;5.88;;
7515;SDS011;3799;47.184;8.538;2023-04-23T06:46:15;11.25;;;5.60;;
7515;SDS011;3799;47.184;8.538;2023-04-23T06:48:44;8.20;;;4.63;;
7515;SDS011;3799;47.184;8.538;2023-04-23T06:51:11;8.13;;;3.72;;
7515;SDS011;3799;47.184;8.538;2023-04-23T06:53:39;6.82;;;3.92;;
7515;SDS011;3799;47.184;8.538;2023-04-23T06:56:07;6.22;;;3.47;;
7515;SDS011;3799;47.184;8.538;2023-04-23T06:58:34;6.63;;;3.97;;
7515;SDS011;3799;47.184;8.538;2023-04-23T07:01:02;6.38;;;3.47;;
7515;SDS011;3799;47.184;8.538;2023-04-23T07:03:34;9.07;;;3.65;;
7515;SDS011;3799;47.184;8.538;2023-04-23T07:06:05;6.80;;;4.10;;
7515;SDS011;3799;47.184;8.538;2023-04-23T07:08:32;6.60;;;4.60;;
7515;SDS011;3799;47.184;8.538;2023-04-23T07:11:05;4.50;;;3.05;;
7515;SDS011;3799;47.184;8.538;2023-04-23T07:13:34;4.40;;;3.05;;
7515;SDS011;3799;47.184;8.538;2023-04-23T07:16:03;4.78;;;2.80;;
7515;SDS011;3799;47.184;8.538;2023-04-23T07:18:31;3.75;;;2.05;;
7515;SDS011;3799;47.184;8.538;2023-04-23T07:20:59;4.07;;;1.92;;
7515;SDS011;3799;47.184;8.538;2023-04-23T07:23:26;4.18;;;2.40;;
7515;SDS011;3799;47.184;8.538;2023-04-23T07:25:54;3.70;;;1.58;;
7515;SDS011;3799;47.184;8.538;2023-04-23T07:28:22;3.60;;;1.63;;
7515;SDS011;3799;47.184;8.538;2023-04-23T07:30:52;2.75;;;1.10;;
7515;SDS011;3799;47.184;8.538;2023-04-23T07:33:19;3.30;;;1.70;;
7515;SDS011;3799;47.184;8.538;2023-04-23T07:35:47;2.97;;;1.10;;
7515;SDS011;3799;47.184;8.538;2023-04-23T07:38:16;4.28;;;1.20;;
7515;SDS011;3799;47.184;8.538;2023-04-23T07:40:44;2.60;;;1.20;;
7515;SDS011;3799;47.184;8.538;2023-04-23T07:43:15;2.20;;;1.05;;
7515;SDS011;3799;47.184;8.538;2023-04-23T07:45:43;1.98;;;0.60;;
7515;SDS011;3799;47.184;8.538;2023-04-23T07:48:11;5.72;;;1.20;;
7515;SDS011;3799;47.184;8.538;2023-04-23T07:50:42;3.85;;;0.82;;
7515;SDS011;3799;47.184;8.538;2023-04-23T07:53:10;3.25;;;1.00;;
7515;SDS011;3799;47.184;8.538;2023-04-23T07:55:38;2.03;;;0.90;;
7515;SDS011;3799;47.184;8.538;2023-04-23T07:58:05;3.00;;;1.30;;
7515;SDS011;3799;47.184;8.538;2023-04-23T08:00:32;2.75;;;1.15;;
7515;SDS011;3799;47.184;8.538;2023-04-23T08:03:01;2.53;;;1.00;;
7515;SDS011;3799;47.184;8.538;2023-04-23T08:05:29;3.35;;;1.35;;
7515;SDS011;3799;47.184;8.538;2023-04-23T08:07:57;2.95;;;1.38;;
7515;SDS011;3799;47.184;8.538;2023-04-23T08:10:24;1.67;;;0.68;;
7515;SDS011;3799;47.184;8.538;2023-04-23T08:12:52;2.03;;;1.02;;
7515;SDS011;3799;47.184;8.538;2023-04-23T08:15:19;4.47;;;1.25;;
7515;SDS011;3799;47.184;8.538;2023-04-23T08:17:46;3.75;;;1.30;;
7515;SDS011;3799;47.184;8.538;2023-04-23T08:20:14;1.98;;;0.85;;
7515;SDS011;3799;47.184;8.538;2023-04-23T08:22:41;2.22;;;1.30;;
7515;SDS011;3799;47.184;8.538;2023-04-23T08:25:10;3.88;;;1.50;;
7515;SDS011;3799;47.184;8.538;2023-04-23T08:27:45;2.30;;;1.10;;
7515;SDS011;3799;47.184;8.538;2023-04-23T08:30:13;2.58;;;1.40;;
7515;SDS011;3799;47.184;8.538;2023-04-23T08:32:41;3.15;;;1.42;;
7515;SDS011;3799;47.184;8.538;2023-04-23T08:35:08;1.85;;;1.10;;
7515;SDS011;3799;47.184;8.538;2023-04-23T08:37:36;3.03;;;1.13;;
7515;SDS011;3799;47.184;8.538;2023-04-23T08:40:05;3.13;;;1.40;;
7515;SDS011;3799;47.184;8.538;2023-04-23T08:45:17;2.35;;;1.00;;
7515;SDS011;3799;47.184;8.538;2023-04-23T08:47:44;2.70;;;1.50;;
7515;SDS011;3799;47.184;8.538;2023-04-23T08:50:13;3.75;;;1.20;;
7515;SDS011;3799;47.184;8.538;2023-04-23T08:52:46;3.25;;;1.55;;
7515;SDS011;3799;47.184;8.538;2023-04-23T08:55:18;3.58;;;1.60;;
7515;SDS011;3799;47.184;8.538;2023-04-23T08:57:48;3.88;;;1.85;;
7515;SDS011;3799;47.184;8.538;2023-04-23T09:00:17;4.72;;;3.08;;
7515;SDS011;3799;47.184;8.538;2023-04-23T09:02:47;4.45;;;2.65;;
7515;SDS011;3799;47.184;8.538;2023-04-23T09:05:16;4.32;;;2.33;;
7515;SDS011;3799;47.184;8.538;2023-04-23T09:07:43;4.80;;;1.80;;
7515;SDS011;3799;47.184;8.538;2023-04-23T09:10:12;4.80;;;2.70;;
7515;SDS011;3799;47.184;8.538;2023-04-23T09:12:44;3.60;;;1.90;;
7515;SDS011;3799;47.184;8.538;2023-04-23T09:15:13;5.43;;;2.25;;
7515;SDS011;3799;47.184;8.538;2023-04-23T09:17:42;6.03;;;1.85;;
7515;SDS011;3799;47.184;8.538;2023-04-23T09:20:12;1.83;;;0.95;;
7515;SDS011;3799;47.184;8.538;2023-04-23T09:25:14;2.70;;;1.33;;
7515;SDS011;3799;47.184;8.538;2023-04-23T09:27:44;3.90;;;1.00;;
7515;SDS011;3799;47.184;8.538;2023-04-23T09:30:13;3.40;;;0.90;;
7515;SDS011;3799;47.184;8.538;2023-04-23T09:32:41;3.92;;;0.80;;
7515;SDS011;3799;47.184;8.538;2023-04-23T09:35:13;3.08;;;1.17;;
7515;SDS011;3799;47.184;8.538;2023-04-23T09:37:43;1.65;;;0.50;;
7515;SDS011;3799;47.184;8.538;2023-04-23T09:40:19;4.43;;;1.10;;
7515;SDS011;3799;47.184;8.538;2023-04-23T09:42:50;1.60;;;0.85;;
7515;SDS011;3799;47.184;8.538;2023-04-23T09:47:52;2.10;;;0.95;;
7515;SDS011;3799;47.184;8.538;2023-04-23T09:50:37;1.90;;;0.68;;
7515;SDS011;3799;47.184;8.538;2023-04-23T09:53:06;3.88;;;1.30;;
7515;SDS011;3799;47.184;8.538;2023-04-23T09:55:35;3.53;;;1.52;;
7515;SDS011;3799;47.184;8.538;2023-04-23T09:58:12;3.97;;;1.70;;
7515;SDS011;3799;47.184;8.538;2023-04-23T10:00:41;2.63;;;1.08;;
7515;SDS011;3799;47.184;8.538;2023-04-23T10:03:09;2.25;;;1.25;;
7515;SDS011;3799;47.184;8.538;2023-04-23T10:05:38;2.17;;;0.90;;
7515;SDS011;3799;47.184;8.538;2023-04-23T10:08:10;2.47;;;0.63;;
7515;SDS011;3799;47.184;8.538;2023-04-23T10:10:40;1.88;;;0.98;;
7515;SDS011;3799;47.184;8.538;2023-04-23T10:13:10;1.40;;;0.80;;
7515;SDS011;3799;47.184;8.538;2023-04-23T10:15:38;2.60;;;1.15;;
7515;SDS011;3799;47.184;8.538;2023-04-23T10:18:06;1.90;;;0.82;;
7515;SDS011;3799;47.184;8.538;2023-04-23T10:20:36;2.45;;;1.05;;
7515;SDS011;3799;47.184;8.538;2023-04-23T10:23:07;1.85;;;1.08;;
7515;SDS011;3799;47.184;8.538;2023-04-23T10:25:38;3.58;;;0.80;;
7515;SDS011;3799;47.184;8.538;2023-04-23T10:28:07;1.90;;;0.90;;
7515;SDS011;3799;47.184;8.538;2023-04-23T10:30:37;2.22;;;0.60;;
7515;SDS011;3799;47.184;8.538;2023-04-23T10:33:08;2.10;;;0.80;;
7515;SDS011;3799;47.184;8.538;2023-04-23T10:35:55;2.83;;;0.75;;
7515;SDS011;3799;47.184;8.538;2023-04-23T10:38:24;5.68;;;1.15;;
7515;SDS011;3799;47.184;8.538;2023-04-23T10:40:54;2.80;;;0.82;;
7515;SDS011;3799;47.184;8.538;2023-04-23T10:43:25;2.42;;;1.17;;
7515;SDS011;3799;47.184;8.538;2023-04-23T10:46:06;2.63;;;0.60;;
7515;SDS011;3799;47.184;8.538;2023-04-23T10:49:05;3.10;;;0.90;;
7515;SDS011;3799;47.184;8.538;2023-04-23T10:51:36;1.58;;;0.80;;
7515;SDS011;3799;47.184;8.538;2023-04-23T10:54:08;4.00;;;0.90;;
7515;SDS011;3799;47.184;8.538;2023-04-23T10:56:39;2.13;;;0.60;;
7515;SDS011;3799;47.184;8.538;2023-04-23T10:59:20;3.63;;;0.80;;
7515;SDS011;3799;47.184;8.538;2023-04-23T11:01:51;2.00;;;0.80;;
7515;SDS011;3799;47.184;8.538;2023-04-23T11:04:22;1.83;;;1.02;;
7515;SDS011;3799;47.184;8.538;2023-04-23T11:06:53;1.60;;;0.50;;
7515;SDS011;3799;47.184;8.538;2023-04-23T11:12:11;1.23;;;0.70;;
7515;SDS011;3799;47.184;8.538;2023-04-23T11:14:42;2.45;;;0.90;;
7515;SDS011;3799;47.184;8.538;2023-04-23T11:17:17;3.90;;;1.33;;
7515;SDS011;3799;47.184;8.538;2023-04-23T11:20:08;1.70;;;0.90;;
7515;SDS011;3799;47.184;8.538;2023-04-23T11:22:47;2.25;;;0.80;;
7515;SDS011;3799;47.184;8.538;2023-04-23T11:25:20;3.17;;;0.93;;
7515;SDS011;3799;47.184;8.538;2023-04-23T11:27:51;1.70;;;0.80;;
7515;SDS011;3799;47.184;8.538;2023-04-23T11:30:24;1.95;;;0.82;;
7515;SDS011;3799;47.184;8.538;2023-04-23T11:32:56;2.38;;;0.77;;
7515;SDS011;3799;47.184;8.538;2023-04-23T11:35:26;2.55;;;0.80;;
7515;SDS011;3799;47.184;8.538;2023-04-23T11:37:55;2.28;;;0.57;;
7515;SDS011;3799;47.184;8.538;2023-04-23T11:40:23;2.42;;;0.90;;
7515;SDS011;3799;47.184;8.538;2023-04-23T11:42:52;4.70;;;0.90;;
7515;SDS011;3799;47.184;8.538;2023-04-23T11:45:22;2.80;;;0.90;;
7515;SDS011;3799;47.184;8.538;2023-04-23T11:47:58;2.53;;;0.95;;
7515;SDS011;3799;47.184;8.538;2023-04-23T11:50:28;1.83;;;0.77;;
7515;SDS011;3799;47.184;8.538;2023-04-23T11:55:30;4.07;;;1.10;;
7515;SDS011;3799;47.184;8.538;2023-04-23T11:57:57;2.13;;;0.65;;
7515;SDS011;3799;47.184;8.538;2023-04-23T12:00:25;1.55;;;0.52;;
7515;SDS011;3799;47.184;8.538;2023-04-23T12:03:00;1.92;;;1.10;;
7515;SDS011;3799;47.184;8.538;2023-04-23T12:05:30;2.05;;;1.10;;
7515;SDS011;3799;47.184;8.538;2023-04-23T12:08:10;1.80;;;0.60;;
7515;SDS011;3799;47.184;8.538;2023-04-23T12:10:46;3.95;;;1.15;;
7515;SDS011;3799;47.184;8.538;2023-04-23T12:13:16;2.40;;;0.95;;
7515;SDS011;3799;47.184;8.538;2023-04-23T12:15:55;2.40;;;1.20;;
7515;SDS011;3799;47.184;8.538;2023-04-23T12:18:34;5.13;;;1.33;;
7515;SDS011;3799;47.184;8.538;2023-04-23T12:21:07;2.05;;;0.88;;
7515;SDS011;3799;47.184;8.538;2023-04-23T12:23:36;4.68;;;1.48;;
7515;SDS011;3799;47.184;8.538;2023-04-23T12:26:14;2.80;;;0.80;;
7515;SDS011;3799;47.184;8.538;2023-04-23T12:28:49;4.53;;;1.17;;
7515;SDS011;3799;47.184;8.538;2023-04-23T12:31:24;3.13;;;1.58;;
7515;SDS011;3799;47.184;8.538;2023-04-23T12:34:06;3.22;;;1.27;;
7515;SDS011;3799;47.184;8.538;2023-04-23T12:36:37;3.95;;;1.20;;
7515;SDS011;3799;47.184;8.538;2023-04-23T12:39:20;4.60;;;1.08;;
7515;SDS011;3799;47.184;8.538;2023-04-23T12:41:55;1.55;;;0.90;;
7515;SDS011;3799;47.184;8.538;2023-04-23T12:44:34;1.85;;;0.77;;
7515;SDS011;3799;47.184;8.538;2023-04-23T12:47:03;3.05;;;1.38;;
7515;SDS011;3799;47.184;8.538;2023-04-23T12:49:37;3.45;;;1.00;;
7515;SDS011;3799;47.184;8.538;2023-04-23T12:52:07;2.92;;;1.10;;
7515;SDS011;3799;47.184;8.538;2023-04-23T12:54:40;2.85;;;1.25;;
7515;SDS011;3799;47.184;8.538;2023-04-23T12:57:10;3.08;;;1.52;;
7515;SDS011;3799;47.184;8.538;2023-04-23T12:59:39;2.88;;;1.25;;
7515;SDS011;3799;47.184;8.538;2023-04-23T13:02:07;3.50;;;1.10;;
7515;SDS011;3799;47.184;8.538;2023-04-23T13:07:06;4.50;;;1.40;;
7515;SDS011;3799;47.184;8.538;2023-04-23T13:09:35;4.75;;;1.40;;
7515;SDS011;3799;47.184;8.538;2023-04-23T13:12:03;4.85;;;1.80;;
7515;SDS011;3799;47.184;8.538;2023-04-23T13:14:31;2.47;;;1.15;;
7515;SDS011;3799;47.184;8.538;2023-04-23T13:17:00;5.43;;;1.42;;
7515;SDS011;3799;47.184;8.538;2023-04-23T13:19:28;2.80;;;0.90;;
7515;SDS011;3799;47.184;8.538;2023-04-23T13:21:56;2.83;;;1.40;;
7515;SDS011;3799;47.184;8.538;2023-04-23T13:24:24;3.70;;;1.05;;
7515;SDS011;3799;47.184;8.538;2023-04-23T13:26:51;3.50;;;1.33;;
7515;SDS011;3799;47.184;8.538;2023-04-23T13:29:22;3.75;;;2.03;;
7515;SDS011;3799;47.184;8.538;2023-04-23T13:32:01;4.28;;;1.23;;
7515;SDS011;3799;47.184;8.538;2023-04-23T13:34:29;4.30;;;1.38;;
7515;SDS011;3799;47.184;8.538;2023-04-23T13:36:56;3.15;;;1.38;;
7515;SDS011;3799;47.184;8.538;2023-04-23T13:39:32;2.78;;;1.90;;
7515;SDS011;3799;47.184;8.538;2023-04-23T13:41:59;4.60;;;1.35;;
7515;SDS011;3799;47.184;8.538;2023-04-23T13:44:35;4.00;;;1.38;;
7515;SDS011;3799;47.184;8.538;2023-04-23T13:47:03;2.97;;;1.00;;
7515;SDS011;3799;47.184;8.538;2023-04-23T13:49:31;3.83;;;1.80;;
7515;SDS011;3799;47.184;8.538;2023-04-23T13:51:58;2.05;;;1.23;;
7515;SDS011;3799;47.184;8.538;2023-04-23T13:54:30;5.38;;;2.30;;
7515;SDS011;3799;47.184;8.538;2023-04-23T13:56:57;3.03;;;1.80;;
7515;SDS011;3799;47.184;8.538;2023-04-23T13:59:25;3.45;;;1.58;;
7515;SDS011;3799;47.184;8.538;2023-04-23T14:01:53;5.55;;;2.22;;
7515;SDS011;3799;47.184;8.538;2023-04-23T14:04:24;3.95;;;2.13;;
7515;SDS011;3799;47.184;8.538;2023-04-23T14:06:55;6.22;;;2.33;;
7515;SDS011;3799;47.184;8.538;2023-04-23T14:09:26;4.80;;;2.08;;
7515;SDS011;3799;47.184;8.538;2023-04-23T14:11:53;4.07;;;2.22;;
7515;SDS011;3799;47.184;8.538;2023-04-23T14:14:20;4.03;;;1.90;;
7515;SDS011;3799;47.184;8.538;2023-04-23T14:16:50;4.40;;;2.33;;
7515;SDS011;3799;47.184;8.538;2023-04-23T14:19:18;3.78;;;2.00;;
7515;SDS011;3799;47.184;8.538;2023-04-23T14:21:45;3.47;;;1.75;;
7515;SDS011;3799;47.184;8.538;2023-04-23T14:24:20;3.90;;;1.80;;
7515;SDS011;3799;47.184;8.538;2023-04-23T14:26:49;4.85;;;2.33;;
7515;SDS011;3799;47.184;8.538;2023-04-23T14:31:50;3.80;;;2.00;;
7515;SDS011;3799;47.184;8.538;2023-04-23T14:34:17;2.92;;;1.70;;
7515;SDS011;3799;47.184;8.538;2023-04-23T14:36:45;3.25;;;1.73;;
7515;SDS011;3799;47.184;8.538;2023-04-23T14:39:15;3.47;;;2.13;;
7515;SDS011;3799;47.184;8.538;2023-04-23T14:41:43;3.10;;;1.70;;
7515;SDS011;3799;47.184;8.538;2023-04-23T14:44:11;3.15;;;1.75;;
7515;SDS011;3799;47.184;8.538;2023-04-23T14:46:38;3.40;;;1.85;;
7515;SDS011;3799;47.184;8.538;2023-04-23T14:49:06;3.85;;;2.03;;
7515;SDS011;3799;47.184;8.538;2023-04-23T14:51:33;4.70;;;2.35;;
7515;SDS011;3799;47.184;8.538;2023-04-23T14:54:01;6.35;;;2.83;;
7515;SDS011;3799;47.184;8.538;2023-04-23T14:56:28;6.00;;;2.50;;
7515;SDS011;3799;47.184;8.538;2023-04-23T14:58:56;6.93;;;2.88;;
7515;SDS011;3799;47.184;8.538;2023-04-23T15:01:23;2.00;;;0.45;;
7515;SDS011;3799;47.184;8.538;2023-04-23T15:03:51;3.35;;;1.17;;
7515;SDS011;3799;47.184;8.538;2023-04-23T15:06:19;6.80;;;4.25;;
7515;SDS011;3799;47.184;8.538;2023-04-23T15:08:47;7.78;;;3.17;;
7515;SDS011;3799;47.184;8.538;2023-04-23T15:11:15;1.90;;;0.82;;
7515;SDS011;3799;47.184;8.538;2023-04-23T15:13:54;1.40;;;0.80;;
7515;SDS011;3799;47.184;8.538;2023-04-23T15:19:14;3.15;;;0.90;;
7515;SDS011;3799;47.184;8.538;2023-04-23T15:21:47;3.95;;;1.40;;
7515;SDS011;3799;47.184;8.538;2023-04-23T15:24:15;3.22;;;0.70;;
7515;SDS011;3799;47.184;8.538;2023-04-23T15:26:42;3.92;;;0.98;;
7515;SDS011;3799;47.184;8.538;2023-04-23T15:29:12;1.95;;;0.85;;
7515;SDS011;3799;47.184;8.538;2023-04-23T15:31:39;2.47;;;0.88;;
7515;SDS011;3799;47.184;8.538;2023-04-23T15:34:07;2.17;;;0.90;;
7515;SDS011;3799;47.184;8.538;2023-04-23T15:36:35;1.95;;;0.70;;
7515;SDS011;3799;47.184;8.538;2023-04-23T15:39:03;2.63;;;0.95;;
7515;SDS011;3799;47.184;8.538;2023-04-23T15:41:33;1.75;;;0.80;;
7515;SDS011;3799;47.184;8.538;2023-04-23T15:44:09;2.00;;;0.73;;
7515;SDS011;3799;47.184;8.538;2023-04-23T15:46:38;1.48;;;0.70;;
7515;SDS011;3799;47.184;8.538;2023-04-23T15:49:07;1.42;;;0.80;;
7515;SDS011;3799;47.184;8.538;2023-04-23T15:51:35;3.63;;;0.90;;
7515;SDS011;3799;47.184;8.538;2023-04-23T15:54:03;3.72;;;1.08;;
7515;SDS011;3799;47.184;8.538;2023-04-23T15:56:34;4.28;;;1.15;;
7515;SDS011;3799;47.184;8.538;2023-04-23T15:59:02;2.60;;;1.40;;